LFMK/CCF METAR and TAF weather

Enter ICAO airport designator
Station Type Date Time Source
LFMK METAR 2022/09/26 10:00 UTC NOAA

LFMK 261000Z AUTO 28012KT 240V310 9999 FEW026 19/11 Q1014 TEMPO SCT035TCU BECMG 27015G27KT


Station Type Date Time Source
LFMK Decoded METAR 2022/09/26 10:00 UTC NOAA

Carcassonne, France (LFMK) 43-13N 002-19E 130M
Sep 26, 2022 - 06:00 AM EDT / 2022.09.26 1000 UTC
Wind: from the W (280 degrees) at 14 MPH (12 KT) (direction variable):0
Visibility: greater than 7 mile(s):0
Sky conditions: mostly clear
Weather: Towering cumulus clouds observed
Temperature: 66 F (19 C)
Dew Point: 51 F (11 C)
Relative Humidity: 59%
Pressure (altimeter): 29.94 in. Hg (1014 hPa)
ob: LFMK 261000Z AUTO 28012KT 240V310 9999 FEW026 19/11 Q1014 TEMPO SCT035TCU BECMG 27015G27KT
cycle: 10

Station Type Date Time Source
LFMK TAF 2022/09/26 09:58 UTC NOAA

TAF LFMK 260800Z 2609/2709 27015G27KT CAVOK
TEMPO 2610/2613 SCT035TCU
BECMG 2621/2624 BKN030 BKN050
TEMPO 2700/2704 4000 RA

Example: see airport list